createdAt,value
2023-05-09T00:00:08.872Z,2.20
2023-05-09T00:01:08.895Z,2.25
2023-05-09T00:02:08.943Z,2.24
2023-05-09T00:03:09.004Z,2.21
2023-05-09T00:04:08.997Z,2.20
2023-05-09T00:05:08.975Z,2.19
2023-05-09T00:06:08.908Z,2.17
2023-05-09T00:07:08.899Z,2.17
2023-05-09T00:08:08.982Z,2.22
2023-05-09T00:09:08.919Z,2.20
2023-05-09T00:10:09.013Z,2.20
2023-05-09T00:11:08.928Z,2.18
2023-05-09T00:12:08.912Z,2.22
2023-05-09T00:13:08.936Z,2.18
2023-05-09T00:14:08.930Z,2.15
2023-05-09T00:15:08.934Z,2.21
2023-05-09T00:16:08.968Z,2.15
2023-05-09T00:17:08.934Z,2.16
2023-05-09T00:18:08.935Z,2.17
2023-05-09T00:19:08.946Z,2.13
2023-05-09T00:20:09.049Z,2.20
2023-05-09T00:21:08.950Z,2.22
2023-05-09T00:22:09.036Z,2.16
2023-05-09T00:23:08.960Z,2.15
2023-05-09T00:24:08.969Z,2.10
2023-05-09T00:25:08.984Z,2.15
2023-05-09T00:26:08.973Z,2.10
2023-05-09T00:27:08.969Z,2.17
2023-05-09T00:28:08.976Z,2.13
2023-05-09T00:29:08.971Z,2.11
2023-05-09T00:30:08.999Z,2.13
2023-05-09T00:31:08.990Z,2.15
2023-05-09T00:32:09.046Z,2.09
2023-05-09T00:33:09.040Z,2.14
2023-05-09T00:34:08.999Z,2.09
2023-05-09T00:35:09.065Z,2.11
2023-05-09T00:36:09.092Z,2.10
2023-05-09T00:37:09.024Z,2.08
2023-05-09T00:38:09.025Z,2.12
2023-05-09T00:39:09.024Z,2.10
2023-05-09T00:40:09.037Z,2.08
2023-05-09T00:41:09.032Z,2.12
2023-05-09T00:42:09.035Z,2.10
2023-05-09T00:43:09.032Z,2.10
2023-05-09T00:44:09.036Z,2.09
2023-05-09T00:45:09.061Z,2.12
2023-05-09T00:46:09.087Z,2.07
2023-05-09T00:47:09.078Z,2.08
2023-05-09T00:48:09.076Z,2.04
2023-05-09T00:49:09.076Z,2.08
2023-05-09T00:50:09.092Z,2.04
2023-05-09T00:51:09.091Z,2.08
2023-05-09T00:52:09.193Z,2.07
2023-05-09T00:53:09.122Z,2.06
2023-05-09T00:54:09.286Z,2.05
2023-05-09T00:55:09.132Z,2.05
2023-05-09T00:56:09.194Z,2.03
2023-05-09T00:57:09.146Z,2.04
2023-05-09T00:58:09.201Z,2.06
2023-05-09T00:59:09.183Z,2.05
2023-05-09T01:00:09.161Z,2.05
2023-05-09T01:01:09.214Z,2.02
2023-05-09T01:02:09.228Z,1.99
2023-05-09T01:03:09.337Z,2.06
2023-05-09T01:04:09.176Z,2.00
2023-05-09T01:05:09.189Z,2.02
2023-05-09T01:06:09.258Z,2.03
2023-05-09T01:07:09.267Z,2.01
2023-05-09T01:08:09.361Z,2.00
2023-05-09T01:09:09.215Z,2.01
2023-05-09T01:10:09.222Z,2.08
2023-05-09T01:11:09.235Z,1.99
2023-05-09T01:12:09.230Z,2.01
2023-05-09T01:13:09.294Z,2.01
2023-05-09T01:14:09.238Z,1.99
2023-05-09T01:15:09.254Z,2.05
2023-05-09T01:16:09.445Z,1.99
2023-05-09T01:17:09.263Z,1.99
2023-05-09T01:18:09.280Z,2.01
2023-05-09T01:19:09.268Z,1.98
2023-05-09T01:20:09.282Z,1.98
2023-05-09T01:21:09.293Z,1.98
2023-05-09T01:22:09.295Z,1.96
2023-05-09T01:23:09.312Z,1.96
2023-05-09T01:24:09.409Z,1.95
2023-05-09T01:25:09.314Z,2.00
2023-05-09T01:26:09.322Z,1.91
2023-05-09T01:27:09.399Z,1.95
2023-05-09T01:28:09.341Z,1.98
2023-05-09T01:29:09.355Z,1.96
2023-05-09T01:30:09.367Z,1.95
2023-05-09T01:31:09.465Z,1.94
2023-05-09T01:32:09.375Z,1.94
2023-05-09T01:33:09.467Z,1.94
2023-05-09T01:34:09.392Z,1.95
2023-05-09T01:35:09.403Z,1.92
2023-05-09T01:36:09.429Z,1.92
2023-05-09T01:37:09.442Z,1.94
2023-05-09T01:38:09.426Z,1.95
2023-05-09T01:39:09.433Z,1.95
2023-05-09T01:40:09.525Z,1.90
2023-05-09T01:41:09.446Z,1.90
2023-05-09T01:42:09.461Z,1.91
2023-05-09T01:43:09.466Z,1.89
2023-05-09T01:44:09.561Z,1.93
2023-05-09T01:45:09.477Z,1.88
2023-05-09T01:46:09.524Z,1.91
2023-05-09T01:47:10.029Z,1.91
2023-05-09T01:48:09.662Z,1.91
2023-05-09T01:49:09.515Z,1.90
2023-05-09T01:50:09.512Z,1.87
2023-05-09T01:51:09.523Z,1.89
2023-05-09T01:52:09.535Z,1.93
2023-05-09T01:53:09.534Z,1.87
2023-05-09T01:54:09.541Z,1.92
2023-05-09T01:55:09.558Z,1.89
2023-05-09T01:56:09.920Z,1.91
2023-05-09T01:57:09.551Z,1.90
2023-05-09T01:58:09.551Z,1.86
2023-05-09T01:59:09.562Z,1.89
2023-05-09T02:00:09.573Z,1.87
2023-05-09T02:01:09.622Z,1.88
2023-05-09T02:02:09.611Z,1.87
2023-05-09T02:03:10.724Z,1.85
2023-05-09T02:04:09.596Z,1.87
2023-05-09T02:05:09.597Z,1.83
2023-05-09T02:06:09.603Z,1.81
2023-05-09T02:07:09.632Z,1.91
2023-05-09T02:08:09.642Z,1.86
2023-05-09T02:09:10.597Z,1.87
2023-05-09T02:10:09.639Z,1.82
2023-05-09T02:11:09.632Z,1.87
2023-05-09T02:12:09.740Z,1.86
2023-05-09T02:13:09.693Z,1.85
2023-05-09T02:14:09.670Z,1.86
2023-05-09T02:15:09.679Z,1.82
2023-05-09T02:16:09.702Z,1.84
2023-05-09T02:17:09.708Z,1.81
2023-05-09T02:18:09.704Z,1.82
2023-05-09T02:19:09.710Z,1.82
2023-05-09T02:20:09.717Z,1.82
2023-05-09T02:21:10.595Z,1.82
2023-05-09T02:22:09.748Z,1.80
2023-05-09T02:23:09.749Z,1.80
2023-05-09T02:24:09.755Z,1.80
2023-05-09T02:25:09.757Z,1.83
2023-05-09T02:26:09.772Z,1.81
2023-05-09T02:27:09.775Z,1.83
2023-05-09T02:28:09.878Z,1.82
2023-05-09T02:29:09.806Z,1.81
2023-05-09T02:30:09.802Z,1.76
2023-05-09T02:31:09.802Z,1.82
2023-05-09T02:32:09.860Z,1.78
2023-05-09T02:33:09.856Z,1.83
2023-05-09T02:34:09.828Z,1.77
2023-05-09T02:35:09.838Z,1.82
2023-05-09T02:36:09.849Z,1.78
2023-05-09T02:37:09.876Z,1.78
2023-05-09T02:38:09.865Z,1.76
2023-05-09T02:39:09.869Z,1.81
2023-05-09T02:40:09.927Z,1.76
2023-05-09T02:41:09.883Z,1.75
2023-05-09T02:42:10.046Z,1.84
2023-05-09T02:43:09.914Z,1.84
2023-05-09T02:44:10.004Z,1.78
2023-05-09T02:45:09.933Z,1.77
2023-05-09T02:46:10.025Z,1.74
2023-05-09T02:47:09.942Z,1.78
2023-05-09T02:48:10.023Z,1.75
2023-05-09T02:49:10.217Z,1.80
2023-05-09T02:50:09.957Z,1.79
2023-05-09T02:51:10.001Z,1.78
2023-05-09T02:52:09.927Z,1.80
2023-05-09T02:53:09.931Z,1.76
2023-05-09T02:54:09.918Z,1.76
2023-05-09T02:55:09.910Z,1.76
2023-05-09T02:56:09.918Z,1.75
2023-05-09T02:57:09.907Z,1.78
2023-05-09T02:58:14.762Z,1.80
2023-05-09T02:59:10.901Z,1.80
2023-05-09T03:00:09.985Z,1.80
2023-05-09T03:01:09.914Z,1.81
2023-05-09T03:02:10.058Z,1.80
2023-05-09T03:03:10.063Z,1.76
2023-05-09T03:04:09.865Z,1.74
2023-05-09T03:05:09.877Z,1.73
2023-05-09T03:06:09.866Z,1.76
2023-05-09T03:07:09.864Z,1.75
2023-05-09T03:08:09.880Z,1.73
2023-05-09T03:09:09.864Z,1.73
2023-05-09T03:10:09.862Z,1.71
2023-05-09T03:11:09.864Z,1.73
2023-05-09T03:12:09.856Z,1.73
2023-05-09T03:13:09.890Z,1.74
2023-05-09T03:14:09.861Z,1.76
2023-05-09T03:15:09.858Z,1.70
2023-05-09T03:16:10.003Z,1.73
2023-05-09T03:17:09.838Z,1.68
2023-05-09T03:18:10.004Z,1.67
2023-05-09T03:19:09.844Z,1.72
2023-05-09T03:20:09.822Z,1.66
2023-05-09T03:21:09.826Z,1.71
2023-05-09T03:22:09.817Z,1.70
2023-05-09T03:23:10.569Z,1.71
2023-05-09T03:24:09.798Z,1.67
2023-05-09T03:25:09.797Z,1.67
2023-05-09T03:26:09.807Z,1.66
2023-05-09T03:27:09.795Z,1.66
2023-05-09T03:28:09.844Z,1.65
2023-05-09T03:29:09.796Z,1.68
2023-05-09T03:30:09.795Z,1.66
2023-05-09T03:31:09.820Z,1.70
2023-05-09T03:32:09.871Z,1.70
2023-05-09T03:33:09.875Z,1.71
2023-05-09T03:34:09.877Z,1.67
2023-05-09T03:35:09.840Z,1.67
2023-05-09T03:36:09.840Z,1.65
2023-05-09T03:37:09.881Z,1.66
2023-05-09T03:38:09.867Z,1.70
2023-05-09T03:39:09.889Z,1.68
2023-05-09T03:40:09.899Z,1.67
2023-05-09T03:41:10.578Z,1.67
2023-05-09T03:42:09.935Z,1.67
2023-05-09T03:43:09.948Z,1.69
2023-05-09T03:44:09.967Z,1.67
2023-05-09T03:45:09.981Z,1.64
2023-05-09T03:46:10.054Z,1.67
2023-05-09T03:47:10.006Z,1.66
2023-05-09T03:48:10.184Z,1.68
2023-05-09T03:49:10.045Z,1.66
2023-05-09T03:50:10.068Z,1.67
2023-05-09T03:51:10.089Z,1.66
2023-05-09T03:52:10.092Z,1.65
2023-05-09T03:53:10.098Z,1.65
2023-05-09T03:54:10.115Z,1.64
2023-05-09T03:55:10.125Z,1.66
2023-05-09T03:56:10.137Z,1.65
2023-05-09T03:57:10.148Z,1.61
2023-05-09T03:58:11.082Z,1.62
2023-05-09T03:59:10.165Z,1.64
2023-05-09T04:00:10.175Z,1.64
2023-05-09T04:01:10.189Z,1.63
2023-05-09T04:02:10.292Z,1.63
2023-05-09T04:03:11.146Z,1.64
2023-05-09T04:04:10.409Z,1.62
2023-05-09T04:05:10.252Z,1.59
2023-05-09T04:06:10.277Z,1.60
2023-05-09T04:07:10.290Z,1.63
2023-05-09T04:08:10.282Z,1.62
2023-05-09T04:09:10.302Z,1.61
2023-05-09T04:10:10.308Z,1.61
2023-05-09T04:11:10.333Z,1.64
2023-05-09T04:12:10.336Z,1.64
2023-05-09T04:13:10.426Z,1.63
2023-05-09T04:14:10.371Z,1.61
2023-05-09T04:15:10.390Z,1.58
2023-05-09T04:16:10.406Z,1.57
2023-05-09T04:17:10.473Z,1.62
2023-05-09T04:18:10.516Z,1.60
2023-05-09T04:19:10.459Z,1.58
2023-05-09T04:20:10.555Z,1.54
2023-05-09T04:21:10.499Z,1.62
2023-05-09T04:22:10.504Z,1.58
2023-05-09T04:23:10.511Z,1.59
2023-05-09T04:24:10.525Z,1.59
2023-05-09T04:25:10.542Z,1.58
2023-05-09T04:26:10.563Z,1.61
2023-05-09T04:27:11.088Z,1.60
2023-05-09T04:28:10.587Z,1.57
2023-05-09T04:29:10.613Z,1.58
2023-05-09T04:30:10.633Z,1.55
2023-05-09T04:31:10.695Z,1.58
2023-05-09T04:32:10.684Z,1.56
2023-05-09T04:33:10.694Z,1.58
2023-05-09T04:34:10.684Z,1.57
2023-05-09T04:35:10.736Z,1.55
2023-05-09T04:36:10.847Z,1.57
2023-05-09T04:37:10.726Z,1.56
2023-05-09T04:38:10.749Z,1.51
2023-05-09T04:39:10.883Z,1.52
2023-05-09T04:40:10.831Z,1.53
2023-05-09T04:41:10.827Z,1.54
2023-05-09T04:42:10.843Z,1.54
2023-05-09T04:43:10.854Z,1.52
2023-05-09T04:44:10.851Z,1.56
2023-05-09T04:45:10.870Z,1.53
2023-05-09T04:46:10.900Z,1.53
2023-05-09T04:47:10.893Z,1.53
2023-05-09T04:48:10.916Z,1.53
2023-05-09T04:49:10.924Z,1.57
2023-05-09T04:50:10.939Z,1.51
2023-05-09T04:51:10.971Z,1.54
2023-05-09T04:52:11.229Z,1.53
2023-05-09T04:53:11.001Z,1.51
2023-05-09T04:54:11.008Z,1.52
2023-05-09T04:55:11.028Z,1.49
2023-05-09T04:56:11.035Z,1.49
2023-05-09T04:57:17.971Z,1.50
2023-05-09T04:58:12.041Z,1.50
2023-05-09T04:59:11.059Z,1.51
2023-05-09T05:00:11.036Z,1.50
2023-05-09T05:01:11.075Z,1.50
2023-05-09T05:02:11.007Z,1.51
2023-05-09T05:03:11.084Z,1.52
2023-05-09T05:04:11.080Z,1.47
2023-05-09T05:05:12.423Z,1.51
2023-05-09T05:06:11.002Z,1.52
2023-05-09T05:07:11.003Z,1.53
2023-05-09T05:08:11.098Z,1.51
2023-05-09T05:09:11.003Z,1.50
2023-05-09T05:10:10.983Z,1.49
2023-05-09T05:11:10.970Z,1.49
2023-05-09T05:12:10.994Z,1.49
2023-05-09T05:13:10.970Z,1.47
2023-05-09T05:14:10.948Z,1.45
2023-05-09T05:15:11.049Z,1.49
2023-05-09T05:16:10.968Z,1.47
2023-05-09T05:17:10.978Z,1.49
2023-05-09T05:18:10.928Z,1.46
2023-05-09T05:19:10.921Z,1.44
2023-05-09T05:20:10.911Z,1.38
2023-05-09T05:21:10.909Z,1.37
2023-05-09T05:22:10.938Z,1.34
2023-05-09T05:23:10.953Z,1.36
2023-05-09T05:24:11.005Z,1.33
2023-05-09T05:25:10.941Z,1.37
2023-05-09T05:26:11.028Z,1.38
2023-05-09T05:27:11.009Z,1.42
2023-05-09T05:28:11.027Z,1.45
2023-05-09T05:29:11.085Z,1.45
2023-05-09T05:30:11.096Z,1.49
2023-05-09T05:31:11.181Z,1.58
2023-05-09T05:32:11.161Z,1.60
2023-05-09T05:33:11.279Z,1.75
2023-05-09T05:34:11.213Z,1.92
2023-05-09T05:35:11.246Z,2.06
2023-05-09T05:36:11.248Z,2.12
2023-05-09T05:37:11.258Z,2.16
2023-05-09T05:38:12.121Z,2.10
2023-05-09T05:39:11.272Z,2.00
2023-05-09T05:40:11.397Z,2.09
2023-05-09T05:41:11.366Z,2.00
2023-05-09T05:42:11.323Z,1.96
2023-05-09T05:43:11.321Z,2.03
2023-05-09T05:44:11.319Z,2.01
2023-05-09T05:45:11.327Z,1.93
2023-05-09T05:46:11.379Z,1.92
2023-05-09T05:47:11.353Z,2.00
2023-05-09T05:48:11.457Z,1.92
2023-05-09T05:49:11.373Z,1.92
2023-05-09T05:50:11.391Z,1.95
2023-05-09T05:51:11.385Z,2.03
2023-05-09T05:52:11.389Z,1.98
2023-05-09T05:53:11.403Z,1.94
2023-05-09T05:54:11.421Z,1.97
2023-05-09T05:55:11.488Z,1.95
2023-05-09T05:56:11.527Z,2.00
2023-05-09T05:57:11.451Z,1.94
2023-05-09T05:58:11.498Z,1.98
2023-05-09T05:59:13.333Z,2.07
2023-05-09T06:00:12.126Z,1.96
2023-05-09T06:01:12.072Z,2.04
2023-05-09T06:02:11.507Z,2.11
2023-05-09T06:03:11.542Z,2.06
2023-05-09T06:04:11.494Z,2.04
2023-05-09T06:05:11.557Z,2.09
2023-05-09T06:06:11.498Z,2.06
2023-05-09T06:07:12.134Z,2.01
2023-05-09T06:08:11.502Z,2.06
2023-05-09T06:09:11.541Z,2.12
2023-05-09T06:10:11.522Z,2.06
2023-05-09T06:11:11.525Z,2.10
2023-05-09T06:12:11.617Z,2.04
2023-05-09T06:13:11.679Z,1.98
2023-05-09T06:14:11.554Z,2.08
2023-05-09T06:15:11.618Z,2.09
2023-05-09T06:16:19.356Z,2.06
2023-05-09T06:17:12.601Z,2.06
2023-05-09T06:18:11.627Z,2.07
2023-05-09T06:19:11.543Z,2.08
2023-05-09T06:20:11.546Z,2.01
2023-05-09T06:21:11.514Z,2.07
2023-05-09T06:22:11.510Z,2.05
2023-05-09T06:23:11.503Z,2.04
2023-05-09T06:24:16.968Z,2.02
2023-05-09T06:25:12.795Z,2.02
2023-05-09T06:26:11.487Z,2.03
2023-05-09T06:27:11.566Z,2.04
2023-05-09T06:28:11.558Z,1.97
2023-05-09T06:29:11.466Z,2.10
2023-05-09T06:30:24.725Z,2.04
2023-05-09T06:31:12.457Z,2.04
2023-05-09T06:32:11.492Z,2.05
2023-05-09T06:33:11.430Z,2.01
2023-05-09T06:34:11.502Z,1.94
2023-05-09T06:35:11.452Z,1.97
2023-05-09T06:36:11.391Z,2.06
2023-05-09T06:37:11.385Z,1.99
2023-05-09T06:38:11.363Z,1.92
2023-05-09T06:39:11.363Z,1.95
2023-05-09T06:40:11.409Z,1.90
2023-05-09T06:41:11.337Z,1.90
2023-05-09T06:42:11.331Z,1.91
2023-05-09T06:43:11.326Z,1.95
2023-05-09T06:44:11.402Z,1.90
2023-05-09T06:45:11.392Z,1.89
2023-05-09T06:46:11.339Z,1.88
2023-05-09T06:47:11.350Z,1.88
2023-05-09T06:48:11.296Z,1.91
2023-05-09T06:49:11.300Z,1.95
2023-05-09T06:50:12.149Z,1.87
2023-05-09T06:51:11.268Z,1.88
2023-05-09T06:52:11.260Z,1.86
2023-05-09T06:53:11.249Z,1.86
2023-05-09T06:54:11.301Z,1.86
2023-05-09T06:55:11.240Z,1.84
2023-05-09T06:56:11.307Z,1.89
2023-05-09T06:57:11.229Z,1.90
2023-05-09T06:58:11.205Z,1.95
2023-05-09T06:59:11.200Z,1.87
2023-05-09T07:00:11.294Z,1.85
2023-05-09T07:01:11.237Z,1.88
2023-05-09T07:02:11.190Z,1.84
2023-05-09T07:03:11.209Z,1.84
2023-05-09T07:04:11.170Z,1.80
2023-05-09T07:05:11.239Z,1.83
2023-05-09T07:06:11.142Z,1.83
2023-05-09T07:07:11.124Z,1.81
2023-05-09T07:08:11.116Z,1.84
2023-05-09T07:09:11.118Z,1.83
2023-05-09T07:10:13.230Z,1.80
2023-05-09T07:11:11.101Z,1.82
2023-05-09T07:12:11.096Z,1.78
2023-05-09T07:13:11.122Z,1.82
2023-05-09T07:14:11.134Z,1.80
2023-05-09T07:15:11.163Z,1.78
2023-05-09T07:16:11.298Z,1.77
2023-05-09T07:17:21.982Z,1.79
2023-05-09T07:18:12.122Z,1.80
2023-05-09T07:19:11.053Z,1.83
2023-05-09T07:20:11.050Z,1.90
2023-05-09T07:21:11.086Z,2.00
2023-05-09T07:22:11.074Z,2.18
2023-05-09T07:23:11.046Z,2.04
2023-05-09T07:24:11.040Z,1.76
2023-05-09T07:25:11.034Z,1.47
2023-05-09T07:26:11.038Z,1.38
2023-05-09T07:27:11.053Z,1.27
2023-05-09T07:28:11.052Z,1.19
2023-05-09T07:29:11.058Z,1.10
2023-05-09T07:30:11.666Z,1.23
2023-05-09T07:31:11.075Z,1.57
2023-05-09T07:32:11.849Z,1.79
2023-05-09T07:33:11.160Z,1.92
2023-05-09T07:34:11.107Z,1.99
2023-05-09T07:35:11.112Z,1.99
2023-05-09T07:36:11.201Z,2.04
2023-05-09T07:37:12.246Z,2.01
2023-05-09T07:38:11.295Z,2.07
2023-05-09T07:39:11.355Z,2.14
2023-05-09T07:40:11.399Z,2.13
2023-05-09T07:41:11.447Z,2.15
2023-05-09T07:42:11.444Z,2.15
2023-05-09T07:43:11.482Z,2.16
2023-05-09T07:44:11.457Z,2.16
2023-05-09T07:45:12.182Z,2.17
2023-05-09T07:46:11.472Z,2.23
2023-05-09T07:47:11.484Z,2.12
2023-05-09T07:48:11.662Z,2.16
2023-05-09T07:49:11.592Z,2.10
2023-05-09T07:50:11.627Z,2.11
2023-05-09T07:51:11.680Z,2.18
2023-05-09T07:52:11.708Z,2.24
2023-05-09T07:53:11.754Z,2.23
2023-05-09T07:54:11.794Z,2.32
2023-05-09T07:55:11.804Z,2.47
2023-05-09T07:56:11.804Z,2.49
2023-05-09T07:57:11.817Z,2.65
2023-05-09T07:58:11.832Z,2.70
2023-05-09T07:59:11.862Z,2.74
2023-05-09T08:00:11.925Z,2.78
2023-05-09T08:01:11.900Z,2.93
2023-05-09T08:02:11.894Z,2.91
2023-05-09T08:03:12.057Z,3.03
2023-05-09T08:04:12.122Z,2.88
2023-05-09T08:05:11.934Z,2.89
2023-05-09T08:06:11.944Z,3.01
2023-05-09T08:07:12.004Z,2.93
2023-05-09T08:08:12.017Z,2.82
2023-05-09T08:09:11.990Z,2.79
2023-05-09T08:10:12.008Z,2.78
2023-05-09T08:11:12.027Z,2.73
2023-05-09T08:12:12.057Z,2.53
2023-05-09T08:13:12.184Z,2.62
2023-05-09T08:14:12.779Z,2.55
2023-05-09T08:15:12.373Z,2.60
2023-05-09T08:16:12.244Z,2.44
2023-05-09T08:17:12.246Z,2.42
2023-05-09T08:18:13.213Z,2.51
2023-05-09T08:19:12.357Z,1.88
2023-05-09T08:20:12.513Z,1.60
2023-05-09T08:21:12.474Z,1.71
2023-05-09T08:22:12.598Z,1.60
2023-05-09T08:23:12.603Z,1.63
2023-05-09T08:24:13.185Z,1.25
2023-05-09T08:25:12.831Z,1.01
2023-05-09T08:26:12.706Z,1.06
2023-05-09T08:27:12.707Z,1.19
2023-05-09T08:28:12.700Z,1.28
2023-05-09T08:29:12.745Z,1.40
2023-05-09T08:30:13.706Z,1.49
2023-05-09T08:31:12.867Z,1.56
2023-05-09T08:32:12.898Z,1.59
2023-05-09T08:33:13.000Z,1.57
2023-05-09T08:34:13.072Z,1.57
2023-05-09T08:35:13.179Z,1.56
2023-05-09T08:36:13.207Z,1.57
2023-05-09T08:37:15.089Z,1.59
2023-05-09T08:38:13.211Z,1.61
2023-05-09T08:39:13.214Z,1.65
2023-05-09T08:40:13.564Z,1.68
2023-05-09T08:41:13.274Z,1.69
2023-05-09T08:42:13.308Z,1.73
2023-05-09T08:43:13.402Z,1.70
2023-05-09T08:44:13.386Z,1.70
2023-05-09T08:45:13.714Z,1.55
2023-05-09T08:46:13.452Z,1.53
2023-05-09T08:47:13.452Z,1.44
2023-05-09T08:48:13.480Z,1.54
2023-05-09T08:49:13.505Z,1.60
2023-05-09T08:50:13.777Z,1.58
2023-05-09T08:51:13.542Z,1.59
2023-05-09T08:52:13.640Z,1.59
2023-05-09T08:53:13.565Z,1.62
2023-05-09T08:54:13.596Z,1.62
2023-05-09T08:55:13.622Z,1.62
2023-05-09T08:56:14.231Z,1.58
2023-05-09T08:57:13.634Z,1.55
2023-05-09T08:58:13.663Z,1.50
2023-05-09T08:59:13.666Z,1.45
2023-05-09T09:00:13.943Z,1.45
2023-05-09T09:01:13.702Z,1.40
2023-05-09T09:02:13.683Z,1.46
2023-05-09T09:03:13.758Z,1.51
2023-05-09T09:04:13.699Z,1.46
2023-05-09T09:05:28.705Z,1.41
2023-05-09T09:06:14.689Z,1.41
2023-05-09T09:07:13.662Z,1.41
2023-05-09T09:08:14.290Z,1.37
2023-05-09T09:09:13.673Z,1.39
2023-05-09T09:10:13.781Z,1.44
2023-05-09T09:11:13.690Z,1.38
2023-05-09T09:12:13.574Z,1.35
2023-05-09T09:13:13.598Z,1.38
2023-05-09T09:14:13.548Z,1.43
2023-05-09T09:15:13.590Z,1.42
2023-05-09T09:16:13.555Z,1.48
2023-05-09T09:17:13.511Z,1.21
2023-05-09T09:18:14.260Z,1.15
2023-05-09T09:19:13.508Z,1.20
2023-05-09T09:20:13.805Z,1.17
2023-05-09T09:21:13.438Z,1.24
2023-05-09T09:22:13.512Z,1.38
2023-05-09T09:23:13.410Z,1.48
2023-05-09T09:24:13.496Z,1.57
2023-05-09T09:25:13.460Z,1.63
2023-05-09T09:26:13.357Z,1.69
2023-05-09T09:27:13.357Z,1.64
2023-05-09T09:28:13.322Z,1.71
2023-05-09T09:29:13.314Z,1.63
2023-05-09T09:30:13.642Z,1.65
2023-05-09T09:31:14.016Z,1.48
2023-05-09T09:32:13.274Z,1.55
2023-05-09T09:33:13.265Z,1.53
2023-05-09T09:34:13.213Z,1.57
2023-05-09T09:35:13.190Z,1.56
2023-05-09T09:36:13.162Z,1.58
2023-05-09T09:37:13.160Z,1.61
2023-05-09T09:38:13.144Z,1.67
2023-05-09T09:39:13.263Z,1.70
2023-05-09T09:40:13.369Z,1.78
2023-05-09T09:41:13.099Z,1.88
2023-05-09T09:42:13.145Z,1.92
2023-05-09T09:43:13.202Z,1.91
2023-05-09T09:44:13.250Z,1.92
2023-05-09T09:45:13.460Z,1.90
2023-05-09T09:46:13.347Z,1.85
2023-05-09T09:47:13.364Z,1.92
2023-05-09T09:48:13.609Z,1.93
2023-05-09T09:49:14.217Z,1.96
2023-05-09T09:50:13.679Z,1.94
2023-05-09T09:51:13.557Z,1.95
2023-05-09T09:52:13.610Z,1.80
2023-05-09T09:53:13.654Z,1.54
2023-05-09T09:54:13.730Z,1.59
2023-05-09T09:55:13.753Z,1.70
2023-05-09T09:56:13.893Z,1.69
2023-05-09T09:57:13.843Z,1.78
2023-05-09T09:58:13.879Z,1.84
2023-05-09T09:59:13.924Z,1.56
2023-05-09T10:00:14.184Z,1.48
2023-05-09T10:01:14.160Z,1.51
2023-05-09T10:02:14.077Z,1.61
2023-05-09T10:03:14.191Z,1.54
2023-05-09T10:04:14.295Z,1.63
2023-05-09T10:05:14.228Z,1.58
2023-05-09T10:06:14.301Z,1.49
2023-05-09T10:07:15.250Z,1.28
2023-05-09T10:08:14.392Z,1.32
2023-05-09T10:09:14.461Z,1.17
2023-05-09T10:10:14.573Z,0.88
2023-05-09T10:11:14.539Z,0.93
2023-05-09T10:12:14.717Z,1.07
2023-05-09T10:13:14.691Z,1.16
2023-05-09T10:14:14.688Z,1.20
2023-05-09T10:15:14.744Z,1.24
2023-05-09T10:16:14.866Z,1.20
2023-05-09T10:17:14.983Z,1.20
2023-05-09T10:18:15.067Z,1.21
2023-05-09T10:19:15.350Z,1.22
2023-05-09T10:20:15.203Z,1.07
2023-05-09T10:21:15.051Z,1.04
2023-05-09T10:22:15.094Z,1.06
2023-05-09T10:23:15.150Z,1.07
2023-05-09T10:24:15.211Z,1.15
2023-05-09T10:25:15.443Z,1.18
2023-05-09T10:26:15.316Z,1.19
2023-05-09T10:27:15.357Z,1.24
2023-05-09T10:28:15.499Z,1.27
2023-05-09T10:29:15.470Z,1.27
2023-05-09T10:30:15.520Z,1.30
2023-05-09T10:31:15.597Z,1.30
2023-05-09T10:32:15.613Z,1.31
2023-05-09T10:33:15.653Z,1.34
2023-05-09T10:34:15.716Z,1.30
2023-05-09T10:35:15.855Z,1.34
2023-05-09T10:36:15.808Z,1.34
2023-05-09T10:37:15.858Z,1.31
2023-05-09T10:38:15.893Z,1.31
2023-05-09T10:39:15.889Z,1.36
2023-05-09T10:40:15.892Z,1.36
2023-05-09T10:41:15.960Z,1.41
2023-05-09T10:42:15.922Z,1.42
2023-05-09T10:43:15.939Z,1.40
2023-05-09T10:44:16.037Z,1.42
2023-05-09T10:45:16.161Z,1.43
2023-05-09T10:46:15.984Z,1.45
2023-05-09T10:47:15.937Z,1.42
2023-05-09T10:48:15.891Z,1.43
2023-05-09T10:49:15.876Z,1.45
2023-05-09T10:50:15.867Z,1.45
2023-05-09T10:51:15.926Z,1.49
2023-05-09T10:52:15.854Z,1.48
2023-05-09T10:53:15.842Z,1.53
2023-05-09T10:54:15.840Z,1.55
2023-05-09T10:55:16.203Z,1.55
2023-05-09T10:56:15.843Z,1.47
2023-05-09T10:57:15.852Z,1.49
2023-05-09T10:58:15.842Z,1.46
2023-05-09T10:59:15.920Z,1.48
2023-05-09T11:00:15.933Z,1.48
2023-05-09T11:01:15.866Z,1.48
2023-05-09T11:02:15.858Z,1.50
2023-05-09T11:03:15.975Z,1.51
2023-05-09T11:04:15.854Z,1.51
2023-05-09T11:05:16.061Z,1.52
2023-05-09T11:06:15.870Z,1.51
2023-05-09T11:07:15.932Z,1.58
2023-05-09T11:08:15.941Z,1.50
2023-05-09T11:09:16.252Z,1.57
2023-05-09T11:10:15.910Z,1.55
2023-05-09T11:11:15.886Z,1.58
2023-05-09T11:12:15.894Z,1.56
2023-05-09T11:13:15.950Z,1.57
2023-05-09T11:14:15.980Z,1.57
2023-05-09T11:15:16.106Z,1.57
2023-05-09T11:16:16.069Z,1.59
2023-05-09T11:17:15.980Z,1.61
2023-05-09T11:18:16.603Z,1.56
2023-05-09T11:19:15.949Z,1.62
2023-05-09T11:20:16.055Z,1.57
2023-05-09T11:21:16.050Z,1.57
2023-05-09T11:22:15.982Z,1.59
2023-05-09T11:23:15.993Z,1.60
2023-05-09T11:24:16.003Z,1.61
2023-05-09T11:25:16.201Z,1.57
2023-05-09T11:26:16.041Z,1.61
2023-05-09T11:27:16.102Z,1.61
2023-05-09T11:28:17.023Z,1.61
2023-05-09T11:29:16.027Z,1.61
2023-05-09T11:30:16.114Z,1.63
2023-05-09T11:31:15.989Z,1.64
2023-05-09T11:32:16.189Z,1.68
2023-05-09T11:33:15.957Z,1.64
2023-05-09T11:34:15.953Z,1.66
2023-05-09T11:35:16.402Z,1.66
2023-05-09T11:36:15.905Z,1.63
2023-05-09T11:37:15.890Z,1.67
2023-05-09T11:38:15.872Z,1.63
2023-05-09T11:39:15.852Z,1.61
2023-05-09T11:40:16.762Z,1.66
2023-05-09T11:41:15.868Z,1.62
2023-05-09T11:42:15.854Z,1.62
2023-05-09T11:43:15.832Z,1.65
2023-05-09T11:44:15.779Z,1.63
2023-05-09T11:45:15.896Z,1.64
2023-05-09T11:46:16.812Z,1.63
2023-05-09T11:47:15.808Z,1.63
2023-05-09T11:48:15.914Z,1.65
2023-05-09T11:49:15.835Z,1.65
2023-05-09T11:50:15.886Z,1.64
2023-05-09T11:51:15.888Z,1.65
2023-05-09T11:52:15.900Z,1.62
2023-05-09T11:53:15.892Z,1.64
2023-05-09T11:54:15.901Z,1.67
2023-05-09T11:55:16.183Z,1.66
2023-05-09T11:56:16.284Z,1.64
2023-05-09T11:57:15.972Z,1.65
2023-05-09T11:58:15.992Z,1.63
2023-05-09T11:59:16.000Z,1.62
2023-05-09T12:00:16.074Z,1.65
2023-05-09T12:01:16.054Z,1.62
2023-05-09T12:02:16.171Z,1.59
2023-05-09T12:03:16.250Z,1.63
2023-05-09T12:04:16.399Z,1.60
2023-05-09T12:05:16.531Z,1.65
2023-05-09T12:06:16.148Z,1.64
2023-05-09T12:07:16.159Z,1.64
2023-05-09T12:08:18.772Z,1.59
2023-05-09T12:09:19.269Z,1.63
2023-05-09T12:10:16.529Z,1.61
2023-05-09T12:11:16.345Z,1.65
2023-05-09T12:12:16.336Z,1.61
2023-05-09T12:13:16.404Z,1.60
2023-05-09T12:14:16.349Z,1.63
2023-05-09T12:15:17.090Z,1.64
2023-05-09T12:16:16.312Z,1.62
2023-05-09T12:17:16.279Z,1.63
2023-05-09T12:18:16.276Z,1.54
2023-05-09T12:19:16.243Z,1.58
2023-05-09T12:20:16.386Z,1.60
2023-05-09T12:21:16.215Z,1.59
2023-05-09T12:22:16.204Z,1.58
2023-05-09T12:23:16.182Z,1.61
2023-05-09T12:24:16.170Z,1.58
2023-05-09T12:25:16.419Z,1.59
2023-05-09T12:26:16.141Z,1.58
2023-05-09T12:27:16.183Z,1.59
2023-05-09T12:28:16.118Z,1.55
2023-05-09T12:29:16.095Z,1.55
2023-05-09T12:30:16.151Z,1.54
2023-05-09T12:31:16.069Z,1.54
2023-05-09T12:32:16.042Z,1.57
2023-05-09T12:33:16.044Z,1.52
2023-05-09T12:34:16.004Z,1.50
2023-05-09T12:35:16.152Z,1.52
2023-05-09T12:36:16.079Z,1.48
2023-05-09T12:37:15.966Z,1.54
2023-05-09T12:38:15.949Z,1.52
2023-05-09T12:39:15.932Z,1.50
2023-05-09T12:40:15.962Z,1.49
2023-05-09T12:41:30.994Z,1.46
2023-05-09T12:42:16.886Z,1.47
2023-05-09T12:43:15.877Z,1.47
2023-05-09T12:44:15.846Z,1.48
2023-05-09T12:45:15.968Z,1.49
2023-05-09T12:46:15.836Z,1.46
2023-05-09T12:47:15.932Z,1.48
2023-05-09T12:48:16.784Z,1.48
2023-05-09T12:49:15.779Z,1.45
2023-05-09T12:50:15.774Z,1.45
2023-05-09T12:51:15.758Z,1.44
2023-05-09T12:52:15.855Z,1.43
2023-05-09T12:53:15.810Z,1.44
2023-05-09T12:54:16.285Z,1.47
2023-05-09T12:55:15.963Z,1.46
2023-05-09T12:56:15.755Z,1.48
2023-05-09T12:57:15.838Z,1.52
2023-05-09T12:58:15.810Z,1.54
2023-05-09T12:59:15.854Z,1.50
2023-05-09T13:00:15.907Z,1.53
2023-05-09T13:01:16.016Z,1.48
2023-05-09T13:02:16.009Z,1.57
2023-05-09T13:03:16.070Z,1.68
2023-05-09T13:04:16.088Z,1.72
2023-05-09T13:05:16.438Z,1.77
2023-05-09T13:06:16.190Z,1.84
2023-05-09T13:07:16.238Z,1.84
2023-05-09T13:08:16.364Z,1.77
2023-05-09T13:09:16.329Z,1.75
2023-05-09T13:10:16.381Z,1.72
2023-05-09T13:11:17.179Z,1.71
2023-05-09T13:12:17.325Z,1.69
2023-05-09T13:13:16.507Z,1.67
2023-05-09T13:14:16.600Z,1.64
2023-05-09T13:15:16.837Z,1.62
2023-05-09T13:16:17.741Z,1.65
2023-05-09T13:17:16.636Z,1.62
2023-05-09T13:18:16.678Z,1.63